sensor_id;sensor_type;location;lat;lon;timestamp;pressure;altitude;pressure_sealevel;temperature;humidity
250;BME280;109;19.806;-70.704;2023-08-24T00:02:18;100678.19;;;28.23;46.87
250;BME280;109;19.806;-70.704;2023-08-24T00:04:44;100677.38;;;28.33;46.85
250;BME280;109;19.806;-70.704;2023-08-24T00:07:11;100692.34;;;28.37;46.48
250;BME280;109;19.806;-70.704;2023-08-24T00:09:37;100693.06;;;28.29;46.82
250;BME280;109;19.806;-70.704;2023-08-24T00:12:04;100700.03;;;28.22;46.60
250;BME280;109;19.806;-70.704;2023-08-24T00:14:31;100700.34;;;28.19;47.16
250;BME280;109;19.806;-70.704;2023-08-24T00:16:58;100708.91;;;28.24;46.79
250;BME280;109;19.806;-70.704;2023-08-24T00:19:24;100712.34;;;28.26;47.24
250;BME280;109;19.806;-70.704;2023-08-24T00:21:51;100709.91;;;28.23;47.24
250;BME280;109;19.806;-70.704;2023-08-24T00:24:24;100707.31;;;28.21;47.14
250;BME280;109;19.806;-70.704;2023-08-24T00:26:50;100711.63;;;28.24;47.31
250;BME280;109;19.806;-70.704;2023-08-24T00:29:23;100716.19;;;28.14;47.42
250;BME280;109;19.806;-70.704;2023-08-24T00:31:49;100728.03;;;28.22;47.13
250;BME280;109;19.806;-70.704;2023-08-24T00:34:22;100727.03;;;28.14;47.13
250;BME280;109;19.806;-70.704;2023-08-24T00:36:48;100734.63;;;28.20;46.97
250;BME280;109;19.806;-70.704;2023-08-24T00:39:23;100736.16;;;28.22;47.44
250;BME280;109;19.806;-70.704;2023-08-24T00:41:49;100733.19;;;28.25;47.31
250;BME280;109;19.806;-70.704;2023-08-24T00:44:23;100735.88;;;28.16;47.35
250;BME280;109;19.806;-70.704;2023-08-24T00:47:03;100717.06;;;28.34;47.38
250;BME280;109;19.806;-70.704;2023-08-24T00:49:29;100726.03;;;28.34;47.28
250;BME280;109;19.806;-70.704;2023-08-24T00:52:03;100723.91;;;28.28;47.06
250;BME280;109;19.806;-70.704;2023-08-24T00:54:30;100724.47;;;28.22;47.11
250;BME280;109;19.806;-70.704;2023-08-24T00:57:03;100725.75;;;28.18;47.26
250;BME280;109;19.806;-70.704;2023-08-24T00:59:31;100728.88;;;28.13;47.41
250;BME280;109;19.806;-70.704;2023-08-24T01:02:04;100733.44;;;28.13;47.27
250;BME280;109;19.806;-70.704;2023-08-24T01:04:30;100736.56;;;28.08;47.24
250;BME280;109;19.806;-70.704;2023-08-24T01:07:04;100743.75;;;28.19;47.38
250;BME280;109;19.806;-70.704;2023-08-24T01:09:30;100754.88;;;28.16;47.27
250;BME280;109;19.806;-70.704;2023-08-24T01:18:08;100753.44;;;28.21;47.48
250;BME280;109;19.806;-70.704;2023-08-24T01:20:42;100759.59;;;28.14;47.49
250;BME280;109;19.806;-70.704;2023-08-24T01:23:36;100755.88;;;28.15;47.44
250;BME280;109;19.806;-70.704;2023-08-24T01:26:16;100755.63;;;28.37;46.70
250;BME280;109;19.806;-70.704;2023-08-24T01:28:50;100756.19;;;28.31;46.52
250;BME280;109;19.806;-70.704;2023-08-24T01:31:17;100756.31;;;28.20;47.06
250;BME280;109;19.806;-70.704;2023-08-24T01:33:50;100759.72;;;28.12;47.62
250;BME280;109;19.806;-70.704;2023-08-24T01:36:17;100757.72;;;28.14;47.63
250;BME280;109;19.806;-70.704;2023-08-24T01:39:11;100769.72;;;28.12;47.89
250;BME280;109;19.806;-70.704;2023-08-24T01:41:52;100763.75;;;28.18;47.86
250;BME280;109;19.806;-70.704;2023-08-24T01:44:35;100763.00;;;28.16;48.10
250;BME280;109;19.806;-70.704;2023-08-24T01:47:12;100769.44;;;28.15;47.88
250;BME280;109;19.806;-70.704;2023-08-24T01:49:40;100772.75;;;28.28;47.93
250;BME280;109;19.806;-70.704;2023-08-24T01:52:14;100774.88;;;28.24;47.84
250;BME280;109;19.806;-70.704;2023-08-24T01:54:43;100779.75;;;28.21;47.85
250;BME280;109;19.806;-70.704;2023-08-24T01:57:16;100786.84;;;28.12;48.04
250;BME280;109;19.806;-70.704;2023-08-24T01:59:43;100790.41;;;28.13;48.55
250;BME280;109;19.806;-70.704;2023-08-24T02:02:16;100786.84;;;28.22;48.06
250;BME280;109;19.806;-70.704;2023-08-24T02:04:43;100792.28;;;28.12;48.33
250;BME280;109;19.806;-70.704;2023-08-24T02:07:16;100792.28;;;28.22;48.33
250;BME280;109;19.806;-70.704;2023-08-24T02:09:42;100794.38;;;28.09;48.30
250;BME280;109;19.806;-70.704;2023-08-24T02:12:16;100795.16;;;28.20;47.79
250;BME280;109;19.806;-70.704;2023-08-24T02:14:42;100802.97;;;28.14;47.81
250;BME280;109;19.806;-70.704;2023-08-24T02:17:16;100805.44;;;28.17;48.01
250;BME280;109;19.806;-70.704;2023-08-24T02:19:42;100807.16;;;28.18;48.12
250;BME280;109;19.806;-70.704;2023-08-24T02:22:16;100803.72;;;28.16;48.09
250;BME280;109;19.806;-70.704;2023-08-24T02:24:43;100795.41;;;28.08;48.07
250;BME280;109;19.806;-70.704;2023-08-24T02:27:16;100802.25;;;28.12;48.25
250;BME280;109;19.806;-70.704;2023-08-24T02:29:49;100802.59;;;28.18;48.23
250;BME280;109;19.806;-70.704;2023-08-24T02:32:22;100814.84;;;28.13;48.23
250;BME280;109;19.806;-70.704;2023-08-24T02:34:48;100813.97;;;28.12;48.20
250;BME280;109;19.806;-70.704;2023-08-24T02:37:22;100805.59;;;28.25;47.89
250;BME280;109;19.806;-70.704;2023-08-24T02:39:49;100810.47;;;28.31;47.99
250;BME280;109;19.806;-70.704;2023-08-24T02:42:22;100809.59;;;28.30;48.12
250;BME280;109;19.806;-70.704;2023-08-24T02:45:09;100807.75;;;28.31;48.33
250;BME280;109;19.806;-70.704;2023-08-24T02:47:42;100803.59;;;28.27;48.38
250;BME280;109;19.806;-70.704;2023-08-24T02:50:09;100801.59;;;28.29;48.27
250;BME280;109;19.806;-70.704;2023-08-24T02:52:42;100799.75;;;28.39;48.31
250;BME280;109;19.806;-70.704;2023-08-24T02:55:09;100802.75;;;28.36;48.13
250;BME280;109;19.806;-70.704;2023-08-24T02:57:43;100802.19;;;28.33;47.91
250;BME280;109;19.806;-70.704;2023-08-24T03:00:09;100805.59;;;28.25;48.12
250;BME280;109;19.806;-70.704;2023-08-24T03:02:46;100800.28;;;28.14;48.26
250;BME280;109;19.806;-70.704;2023-08-24T03:05:14;100807.03;;;28.29;48.09
250;BME280;109;19.806;-70.704;2023-08-24T03:07:47;100810.28;;;28.23;47.95
250;BME280;109;19.806;-70.704;2023-08-24T03:10:13;100800.44;;;28.22;47.82
250;BME280;109;19.806;-70.704;2023-08-24T03:12:47;100805.19;;;28.29;47.84
250;BME280;109;19.806;-70.704;2023-08-24T03:15:13;100802.31;;;28.31;47.42
250;BME280;109;19.806;-70.704;2023-08-24T03:17:46;100799.53;;;28.12;47.75
250;BME280;109;19.806;-70.704;2023-08-24T03:20:13;100805.00;;;28.21;47.46
250;BME280;109;19.806;-70.704;2023-08-24T03:22:46;100812.13;;;28.22;48.12
250;BME280;109;19.806;-70.704;2023-08-24T03:25:12;100815.41;;;28.16;48.44
250;BME280;109;19.806;-70.704;2023-08-24T03:27:46;100814.72;;;28.24;48.34
250;BME280;109;19.806;-70.704;2023-08-24T03:30:20;100815.75;;;28.33;47.79
250;BME280;109;19.806;-70.704;2023-08-24T03:32:56;100817.44;;;28.24;47.85
250;BME280;109;19.806;-70.704;2023-08-24T03:35:32;100817.28;;;28.25;47.93
250;BME280;109;19.806;-70.704;2023-08-24T03:37:59;100821.72;;;28.17;48.26
250;BME280;109;19.806;-70.704;2023-08-24T03:40:33;100820.00;;;28.16;48.59
250;BME280;109;19.806;-70.704;2023-08-24T03:43:01;100813.38;;;28.09;48.59
250;BME280;109;19.806;-70.704;2023-08-24T03:45:35;100811.38;;;28.11;48.72
250;BME280;109;19.806;-70.704;2023-08-24T03:48:15;100808.16;;;27.96;48.98
250;BME280;109;19.806;-70.704;2023-08-24T03:50:42;100799.94;;;27.98;48.71
250;BME280;109;19.806;-70.704;2023-08-24T03:53:15;100803.50;;;27.98;48.76
250;BME280;109;19.806;-70.704;2023-08-24T03:55:41;100800.19;;;27.94;48.92
250;BME280;109;19.806;-70.704;2023-08-24T03:58:14;100795.81;;;28.03;48.67
250;BME280;109;19.806;-70.704;2023-08-24T04:00:40;100797.06;;;27.99;48.81
250;BME280;109;19.806;-70.704;2023-08-24T04:03:14;100792.84;;;28.06;48.81
250;BME280;109;19.806;-70.704;2023-08-24T04:05:40;100790.97;;;28.07;48.70
250;BME280;109;19.806;-70.704;2023-08-24T04:08:14;100789.19;;;27.96;49.13
250;BME280;109;19.806;-70.704;2023-08-24T04:10:40;100785.09;;;28.02;48.63
250;BME280;109;19.806;-70.704;2023-08-24T04:13:13;100793.50;;;27.99;48.93
250;BME280;109;19.806;-70.704;2023-08-24T04:15:39;100781.03;;;27.96;49.26
250;BME280;109;19.806;-70.704;2023-08-24T04:18:12;100774.25;;;28.02;49.12
250;BME280;109;19.806;-70.704;2023-08-24T04:20:38;100775.97;;;28.03;48.74
250;BME280;109;19.806;-70.704;2023-08-24T04:23:13;100779.50;;;27.93;48.88
250;BME280;109;19.806;-70.704;2023-08-24T04:25:40;100777.56;;;27.84;48.82
250;BME280;109;19.806;-70.704;2023-08-24T04:28:13;100780.41;;;27.83;48.93
250;BME280;109;19.806;-70.704;2023-08-24T04:30:53;100784.56;;;27.77;48.87
250;BME280;109;19.806;-70.704;2023-08-24T04:33:27;100786.44;;;27.86;48.94
250;BME280;109;19.806;-70.704;2023-08-24T04:35:53;100783.44;;;27.80;49.04
250;BME280;109;19.806;-70.704;2023-08-24T04:38:27;100787.84;;;27.81;48.92
250;BME280;109;19.806;-70.704;2023-08-24T04:40:55;100777.72;;;27.83;48.75
250;BME280;109;19.806;-70.704;2023-08-24T04:43:28;100775.72;;;27.85;48.77
250;BME280;109;19.806;-70.704;2023-08-24T04:46:15;100778.00;;;27.80;48.71
250;BME280;109;19.806;-70.704;2023-08-24T04:48:56;100768.56;;;27.74;48.84
250;BME280;109;19.806;-70.704;2023-08-24T04:51:29;100771.66;;;27.70;48.96
250;BME280;109;19.806;-70.704;2023-08-24T04:53:55;100771.25;;;27.74;48.58
250;BME280;109;19.806;-70.704;2023-08-24T04:56:28;100768.03;;;27.80;48.68
250;BME280;109;19.806;-70.704;2023-08-24T04:58:58;100778.09;;;27.69;48.68
250;BME280;109;19.806;-70.704;2023-08-24T05:01:35;100775.81;;;27.74;48.88
250;BME280;109;19.806;-70.704;2023-08-24T05:04:03;100767.03;;;27.81;48.90
250;BME280;109;19.806;-70.704;2023-08-24T05:06:36;100772.94;;;27.66;49.07
250;BME280;109;19.806;-70.704;2023-08-24T05:09:02;100760.66;;;27.62;49.01
250;BME280;109;19.806;-70.704;2023-08-24T05:11:36;100755.50;;;27.58;48.75
250;BME280;109;19.806;-70.704;2023-08-24T05:14:02;100747.50;;;27.57;48.84
250;BME280;109;19.806;-70.704;2023-08-24T05:16:36;100746.88;;;27.74;48.69
250;BME280;109;19.806;-70.704;2023-08-24T05:19:02;100734.44;;;27.72;48.74
250;BME280;109;19.806;-70.704;2023-08-24T05:21:36;100736.13;;;27.63;49.05
250;BME280;109;19.806;-70.704;2023-08-24T05:24:02;100726.03;;;27.75;48.76
250;BME280;109;19.806;-70.704;2023-08-24T05:26:37;100720.59;;;27.65;48.81
250;BME280;109;19.806;-70.704;2023-08-24T05:29:03;100720.59;;;27.65;48.74
250;BME280;109;19.806;-70.704;2023-08-24T05:31:43;100722.16;;;27.68;48.64
250;BME280;109;19.806;-70.704;2023-08-24T05:34:17;100716.75;;;27.68;48.86
250;BME280;109;19.806;-70.704;2023-08-24T05:36:43;100707.28;;;27.62;48.66
250;BME280;109;19.806;-70.704;2023-08-24T05:39:16;100709.31;;;27.70;48.42
250;BME280;109;19.806;-70.704;2023-08-24T05:41:52;100709.91;;;27.73;48.36
250;BME280;109;19.806;-70.704;2023-08-24T05:44:26;100706.19;;;27.74;48.16
250;BME280;109;19.806;-70.704;2023-08-24T05:47:06;100700.88;;;27.63;48.32
250;BME280;109;19.806;-70.704;2023-08-24T05:49:32;100703.47;;;27.65;48.03
250;BME280;109;19.806;-70.704;2023-08-24T05:52:06;100692.03;;;27.61;48.06
250;BME280;109;19.806;-70.704;2023-08-24T05:54:32;100690.09;;;27.42;48.49
250;BME280;109;19.806;-70.704;2023-08-24T05:57:05;100695.31;;;27.55;48.22
250;BME280;109;19.806;-70.704;2023-08-24T05:59:33;100686.09;;;27.46;48.58
250;BME280;109;19.806;-70.704;2023-08-24T06:02:06;100675.50;;;27.43;48.12
250;BME280;109;19.806;-70.704;2023-08-24T06:04:32;100675.22;;;27.37;48.35
250;BME280;109;19.806;-70.704;2023-08-24T06:07:05;100675.69;;;27.42;48.51
250;BME280;109;19.806;-70.704;2023-08-24T06:09:31;100662.78;;;27.34;48.13
250;BME280;109;19.806;-70.704;2023-08-24T06:12:04;100677.47;;;27.32;48.37
250;BME280;109;19.806;-70.704;2023-08-24T06:14:31;100683.16;;;27.29;48.32
250;BME280;109;19.806;-70.704;2023-08-24T06:17:04;100685.19;;;27.36;47.83
250;BME280;109;19.806;-70.704;2023-08-24T06:19:31;100684.06;;;27.39;48.16
250;BME280;109;19.806;-70.704;2023-08-24T06:22:04;100680.38;;;27.40;48.32
250;BME280;109;19.806;-70.704;2023-08-24T06:24:30;100689.75;;;27.36;48.56
250;BME280;109;19.806;-70.704;2023-08-24T06:27:04;100693.31;;;27.36;48.65
250;BME280;109;19.806;-70.704;2023-08-24T06:29:42;100700.59;;;27.36;48.29
250;BME280;109;19.806;-70.704;2023-08-24T06:32:16;100699.75;;;27.45;48.52
250;BME280;109;19.806;-70.704;2023-08-24T06:34:42;100683.69;;;27.53;48.07
250;BME280;109;19.806;-70.704;2023-08-24T06:37:16;100696.06;;;27.46;48.35
250;BME280;109;19.806;-70.704;2023-08-24T06:39:42;100697.19;;;27.43;48.42
250;BME280;109;19.806;-70.704;2023-08-24T06:42:15;100702.69;;;27.32;48.48
250;BME280;109;19.806;-70.704;2023-08-24T06:45:01;100717.84;;;27.35;48.70
250;BME280;109;19.806;-70.704;2023-08-24T06:47:35;100715.97;;;27.35;48.61
250;BME280;109;19.806;-70.704;2023-08-24T06:50:02;100699.34;;;27.19;48.53
250;BME280;109;19.806;-70.704;2023-08-24T06:52:35;100705.47;;;27.42;48.66
250;BME280;109;19.806;-70.704;2023-08-24T06:55:02;100697.78;;;27.47;48.53
250;BME280;109;19.806;-70.704;2023-08-24T06:57:36;100703.03;;;27.39;48.43
250;BME280;109;19.806;-70.704;2023-08-24T07:00:02;100709.78;;;27.23;48.80
250;BME280;109;19.806;-70.704;2023-08-24T07:02:47;100709.63;;;27.46;48.08
250;BME280;109;19.806;-70.704;2023-08-24T07:05:21;100721.75;;;27.42;48.07
250;BME280;109;19.806;-70.704;2023-08-24T07:07:49;100719.09;;;27.31;48.19
250;BME280;109;19.806;-70.704;2023-08-24T07:10:22;100723.09;;;27.27;48.74
250;BME280;109;19.806;-70.704;2023-08-24T07:12:48;100724.78;;;27.28;48.58
250;BME280;109;19.806;-70.704;2023-08-24T07:15:22;100717.06;;;27.23;48.18
250;BME280;109;19.806;-70.704;2023-08-24T07:17:48;100717.06;;;27.23;48.72
250;BME280;109;19.806;-70.704;2023-08-24T07:20:22;100725.53;;;27.30;48.19
250;BME280;109;19.806;-70.704;2023-08-24T07:22:49;100721.53;;;27.34;47.98
250;BME280;109;19.806;-70.704;2023-08-24T07:25:23;100724.50;;;27.31;47.88
250;BME280;109;19.806;-70.704;2023-08-24T07:27:49;100722.81;;;27.30;48.44
250;BME280;109;19.806;-70.704;2023-08-24T07:30:22;100721.97;;;27.29;48.47
250;BME280;109;19.806;-70.704;2023-08-24T07:32:48;100713.50;;;27.22;48.21
250;BME280;109;19.806;-70.704;2023-08-24T07:35:21;100708.63;;;27.16;48.40
250;BME280;109;19.806;-70.704;2023-08-24T07:37:51;100703.34;;;27.15;48.40
250;BME280;109;19.806;-70.704;2023-08-24T07:40:24;100712.47;;;27.14;48.12
250;BME280;109;19.806;-70.704;2023-08-24T07:42:53;100702.34;;;27.16;48.30
250;BME280;109;19.806;-70.704;2023-08-24T07:45:28;100696.38;;;27.22;48.00
250;BME280;109;19.806;-70.704;2023-08-24T07:48:15;100702.84;;;27.31;48.28
250;BME280;109;19.806;-70.704;2023-08-24T07:50:49;100697.72;;;27.28;47.84
250;BME280;109;19.806;-70.704;2023-08-24T07:53:15;100700.75;;;27.13;48.42
250;BME280;109;19.806;-70.704;2023-08-24T07:55:49;100699.81;;;27.24;47.64
250;BME280;109;19.806;-70.704;2023-08-24T07:58:15;100698.81;;;27.25;47.68
250;BME280;109;19.806;-70.704;2023-08-24T08:00:52;100703.78;;;27.20;47.90
250;BME280;109;19.806;-70.704;2023-08-24T08:03:19;100700.03;;;27.11;48.15
250;BME280;109;19.806;-70.704;2023-08-24T08:05:53;100695.59;;;27.10;48.08
250;BME280;109;19.806;-70.704;2023-08-24T08:08:20;100695.25;;;27.04;48.11
250;BME280;109;19.806;-70.704;2023-08-24T08:11:00;100692.50;;;27.15;47.94
250;BME280;109;19.806;-70.704;2023-08-24T08:13:34;100697.50;;;27.19;47.60
250;BME280;109;19.806;-70.704;2023-08-24T08:16:02;100701.50;;;27.04;48.26
250;BME280;109;19.806;-70.704;2023-08-24T08:18:36;100698.91;;;27.14;48.01
250;BME280;109;19.806;-70.704;2023-08-24T08:21:09;100693.88;;;27.09;47.64
250;BME280;109;19.806;-70.704;2023-08-24T08:23:44;100701.78;;;27.01;47.80
250;BME280;109;19.806;-70.704;2023-08-24T08:26:12;100693.94;;;26.98;48.14
250;BME280;109;19.806;-70.704;2023-08-24T08:28:46;100684.81;;;26.99;48.22
250;BME280;109;19.806;-70.704;2023-08-24T08:31:12;100671.41;;;26.98;48.13
250;BME280;109;19.806;-70.704;2023-08-24T08:33:45;100668.69;;;26.98;48.04
250;BME280;109;19.806;-70.704;2023-08-24T08:36:11;100679.41;;;26.99;48.18
250;BME280;109;19.806;-70.704;2023-08-24T08:38:45;100680.34;;;26.88;47.96
250;BME280;109;19.806;-70.704;2023-08-24T08:41:12;100678.41;;;27.00;47.86
250;BME280;109;19.806;-70.704;2023-08-24T08:43:47;100667.25;;;26.94;47.87
250;BME280;109;19.806;-70.704;2023-08-24T08:46:36;100668.44;;;27.01;48.10
250;BME280;109;19.806;-70.704;2023-08-24T08:49:09;100677.50;;;26.90;47.83
250;BME280;109;19.806;-70.704;2023-08-24T08:51:36;100674.63;;;26.91;47.73
250;BME280;109;19.806;-70.704;2023-08-24T08:54:11;100679.34;;;26.89;47.66
250;BME280;109;19.806;-70.704;2023-08-24T08:56:38;100683.50;;;26.94;47.77
250;BME280;109;19.806;-70.704;2023-08-24T08:59:13;100686.63;;;26.89;48.17
250;BME280;109;19.806;-70.704;2023-08-24T09:01:41;100688.53;;;26.98;47.53
250;BME280;109;19.806;-70.704;2023-08-24T09:04:16;100679.00;;;27.04;47.65
250;BME280;109;19.806;-70.704;2023-08-24T09:06:43;100679.78;;;26.95;47.47
250;BME280;109;19.806;-70.704;2023-08-24T09:09:17;100676.31;;;27.04;47.97
250;BME280;109;19.806;-70.704;2023-08-24T09:11:44;100690.75;;;26.93;47.86
250;BME280;109;19.806;-70.704;2023-08-24T09:14:20;100679.75;;;26.85;47.75
250;BME280;109;19.806;-70.704;2023-08-24T09:16:47;100683.44;;;26.84;48.02
250;BME280;109;19.806;-70.704;2023-08-24T09:19:28;100684.38;;;26.73;47.82
250;BME280;109;19.806;-70.704;2023-08-24T09:22:03;100681.66;;;26.73;48.40
250;BME280;109;19.806;-70.704;2023-08-24T09:24:34;100679.25;;;26.80;48.08
250;BME280;109;19.806;-70.704;2023-08-24T09:27:16;100684.03;;;26.87;48.19
250;BME280;109;19.806;-70.704;2023-08-24T09:29:51;100687.47;;;26.89;48.12
250;BME280;109;19.806;-70.704;2023-08-24T09:32:27;100682.63;;;26.93;48.00
250;BME280;109;19.806;-70.704;2023-08-24T09:35:05;100692.34;;;26.96;47.93
250;BME280;109;19.806;-70.704;2023-08-24T09:37:40;100684.94;;;26.98;47.67
250;BME280;109;19.806;-70.704;2023-08-24T09:40:15;100684.56;;;27.02;47.49
250;BME280;109;19.806;-70.704;2023-08-24T09:42:49;100686.97;;;27.05;47.46
250;BME280;109;19.806;-70.704;2023-08-24T09:45:35;100697.50;;;26.99;47.89
250;BME280;109;19.806;-70.704;2023-08-24T09:48:09;100690.88;;;26.91;48.05
250;BME280;109;19.806;-70.704;2023-08-24T09:50:36;100700.59;;;26.94;47.70
250;BME280;109;19.806;-70.704;2023-08-24T09:53:18;100704.41;;;26.91;48.00
250;BME280;109;19.806;-70.704;2023-08-24T09:56:04;100705.69;;;26.87;48.04
250;BME280;109;19.806;-70.704;2023-08-24T09:58:39;100702.94;;;26.78;48.24
250;BME280;109;19.806;-70.704;2023-08-24T10:01:06;100709.13;;;26.89;47.98
250;BME280;109;19.806;-70.704;2023-08-24T10:03:39;100710.31;;;26.97;47.33
250;BME280;109;19.806;-70.704;2023-08-24T10:06:09;100716.31;;;27.00;47.51
250;BME280;109;19.806;-70.704;2023-08-24T10:08:46;100716.47;;;26.99;47.06
250;BME280;109;19.806;-70.704;2023-08-24T10:11:26;100713.16;;;26.95;47.02
250;BME280;109;19.806;-70.704;2023-08-24T10:14:19;100717.13;;;26.91;47.97
250;BME280;109;19.806;-70.704;2023-08-24T10:16:54;100722.47;;;27.02;47.76
250;BME280;109;19.806;-70.704;2023-08-24T10:19:22;100720.03;;;26.99;47.60
250;BME280;109;19.806;-70.704;2023-08-24T10:21:57;100721.13;;;26.97;47.92
250;BME280;109;19.806;-70.704;2023-08-24T10:24:33;100731.47;;;27.03;48.00
250;BME280;109;19.806;-70.704;2023-08-24T10:27:09;100731.13;;;26.96;48.06
250;BME280;109;19.806;-70.704;2023-08-24T10:29:43;100742.00;;;27.06;48.01
250;BME280;109;19.806;-70.704;2023-08-24T10:34:58;100736.94;;;27.33;47.02
250;BME280;109;19.806;-70.704;2023-08-24T10:37:44;100744.50;;;27.30;47.31
250;BME280;109;19.806;-70.704;2023-08-24T10:40:35;100746.47;;;27.28;47.40
250;BME280;109;19.806;-70.704;2023-08-24T10:43:08;100751.06;;;27.37;47.03
250;BME280;109;19.806;-70.704;2023-08-24T10:46:00;100754.13;;;27.22;47.24
250;BME280;109;19.806;-70.704;2023-08-24T10:51:22;100759.41;;;27.24;47.37
250;BME280;109;19.806;-70.704;2023-08-24T10:53:59;100758.09;;;27.18;47.92
250;BME280;109;19.806;-70.704;2023-08-24T10:56:37;100759.06;;;27.17;47.41
250;BME280;109;19.806;-70.704;2023-08-24T10:59:13;100776.59;;;27.34;47.22
250;BME280;109;19.806;-70.704;2023-08-24T11:01:41;100772.03;;;27.55;47.18
250;BME280;109;19.806;-70.704;2023-08-24T11:04:08;100780.31;;;27.54;47.41
250;BME280;109;19.806;-70.704;2023-08-24T11:06:50;100787.22;;;27.68;47.20
250;BME280;109;19.806;-70.704;2023-08-24T11:09:17;100796.13;;;27.79;47.14
250;BME280;109;19.806;-70.704;2023-08-24T11:11:59;100800.34;;;27.72;47.51
250;BME280;109;19.806;-70.704;2023-08-24T11:14:26;100798.25;;;27.76;47.42
250;BME280;109;19.806;-70.704;2023-08-24T11:16:57;100801.53;;;27.79;46.83
250;BME280;109;19.806;-70.704;2023-08-24T11:19:25;100817.81;;;27.79;46.94
250;BME280;109;19.806;-70.704;2023-08-24T11:21:52;100813.66;;;27.75;47.11
250;BME280;109;19.806;-70.704;2023-08-24T11:24:19;100819.41;;;27.61;47.35
250;BME280;109;19.806;-70.704;2023-08-24T11:26:47;100831.31;;;27.70;47.11
250;BME280;109;19.806;-70.704;2023-08-24T11:29:15;100826.69;;;27.81;46.98
250;BME280;109;19.806;-70.704;2023-08-24T11:31:41;100835.97;;;27.88;46.88
250;BME280;109;19.806;-70.704;2023-08-24T11:34:08;100835.72;;;27.91;47.34
250;BME280;109;19.806;-70.704;2023-08-24T11:36:46;100834.25;;;27.87;47.00
250;BME280;109;19.806;-70.704;2023-08-24T11:39:18;100842.53;;;27.86;47.46
250;BME280;109;19.806;-70.704;2023-08-24T11:41:57;100846.09;;;27.86;47.63
250;BME280;109;19.806;-70.704;2023-08-24T11:44:27;100850.25;;;27.90;47.49
250;BME280;109;19.806;-70.704;2023-08-24T11:46:59;100847.16;;;27.95;47.49
250;BME280;109;19.806;-70.704;2023-08-24T11:49:25;100846.50;;;28.03;47.56
250;BME280;109;19.806;-70.704;2023-08-24T11:51:52;100854.25;;;28.17;47.39
250;BME280;109;19.806;-70.704;2023-08-24T11:54:19;100857.97;;;28.16;47.20
250;BME280;109;19.806;-70.704;2023-08-24T11:56:46;100859.41;;;28.20;47.18
250;BME280;109;19.806;-70.704;2023-08-24T11:59:14;100865.41;;;28.23;47.25
250;BME280;109;19.806;-70.704;2023-08-24T12:01:41;100870.31;;;28.39;47.24
250;BME280;109;19.806;-70.704;2023-08-24T12:04:09;100869.31;;;28.40;47.44
250;BME280;109;19.806;-70.704;2023-08-24T12:06:35;100877.97;;;28.45;47.38
250;BME280;109;19.806;-70.704;2023-08-24T12:09:05;100881.28;;;28.58;47.13
250;BME280;109;19.806;-70.704;2023-08-24T12:11:38;100886.88;;;28.76;46.83
250;BME280;109;19.806;-70.704;2023-08-24T12:14:06;100888.44;;;28.79;46.99
250;BME280;109;19.806;-70.704;2023-08-24T12:16:35;100884.59;;;28.81;46.91
250;BME280;109;19.806;-70.704;2023-08-24T12:19:07;100893.50;;;28.93;46.78
250;BME280;109;19.806;-70.704;2023-08-24T12:21:33;100903.66;;;29.00;46.22
250;BME280;109;19.806;-70.704;2023-08-24T12:24:04;100902.38;;;28.95;46.42
250;BME280;109;19.806;-70.704;2023-08-24T12:26:35;100899.66;;;28.85;45.76
250;BME280;109;19.806;-70.704;2023-08-24T12:29:07;100901.78;;;28.91;45.27
250;BME280;109;19.806;-70.704;2023-08-24T12:31:35;100904.66;;;28.90;45.34
250;BME280;109;19.806;-70.704;2023-08-24T12:34:04;100902.66;;;28.92;45.79
250;BME280;109;19.806;-70.704;2023-08-24T12:36:35;100895.94;;;29.06;45.76
250;BME280;109;19.806;-70.704;2023-08-24T12:39:03;100895.81;;;29.17;45.62
250;BME280;109;19.806;-70.704;2023-08-24T12:41:34;100902.53;;;29.22;45.19
250;BME280;109;19.806;-70.704;2023-08-24T12:44:00;100898.09;;;29.21;44.93
250;BME280;109;19.806;-70.704;2023-08-24T12:46:32;100897.41;;;29.39;44.89
250;BME280;109;19.806;-70.704;2023-08-24T12:48:59;100904.41;;;29.41;44.86
250;BME280;109;19.806;-70.704;2023-08-24T12:51:25;100898.66;;;29.54;44.97
250;BME280;109;19.806;-70.704;2023-08-24T12:53:52;100904.66;;;29.67;44.54
250;BME280;109;19.806;-70.704;2023-08-24T12:56:18;100898.09;;;29.89;44.66
250;BME280;109;19.806;-70.704;2023-08-24T12:58:45;100911.19;;;30.03;44.39
250;BME280;109;19.806;-70.704;2023-08-24T13:01:12;100916.19;;;30.08;43.19
250;BME280;109;19.806;-70.704;2023-08-24T13:03:38;100915.94;;;30.01;43.10
250;BME280;109;19.806;-70.704;2023-08-24T13:06:06;100914.75;;;30.03;42.99
250;BME280;109;19.806;-70.704;2023-08-24T13:08:32;100914.22;;;29.90;43.12
250;BME280;109;19.806;-70.704;2023-08-24T13:10:59;100922.63;;;30.07;43.13
250;BME280;109;19.806;-70.704;2023-08-24T13:13:25;100927.78;;;30.19;43.10
250;BME280;109;19.806;-70.704;2023-08-24T13:15:52;100931.88;;;30.33;42.92
250;BME280;109;19.806;-70.704;2023-08-24T13:18:18;100931.53;;;30.46;42.41
250;BME280;109;19.806;-70.704;2023-08-24T13:20:45;100949.13;;;30.24;42.87
250;BME280;109;19.806;-70.704;2023-08-24T13:23:11;100950.63;;;30.36;42.46
250;BME280;109;19.806;-70.704;2023-08-24T13:25:38;100953.06;;;30.39;42.61
250;BME280;109;19.806;-70.704;2023-08-24T13:28:04;100949.03;;;30.43;42.71
250;BME280;109;19.806;-70.704;2023-08-24T13:30:31;100953.75;;;30.78;42.09
250;BME280;109;19.806;-70.704;2023-08-24T13:32:57;100953.78;;;30.68;41.73
250;BME280;109;19.806;-70.704;2023-08-24T13:35:24;100947.75;;;30.74;41.84
250;BME280;109;19.806;-70.704;2023-08-24T13:37:50;100951.78;;;30.70;41.01
250;BME280;109;19.806;-70.704;2023-08-24T13:40:17;100957.44;;;30.87;41.71
250;BME280;109;19.806;-70.704;2023-08-24T13:42:44;100965.69;;;31.04;41.76
250;BME280;109;19.806;-70.704;2023-08-24T13:45:11;100953.69;;;31.15;42.08